sensor_id;sensor_type;location;lat;lon;timestamp;temperature;humidity
49465;DHT22;35358;49.342;8.802;2023-04-07T00:01:40;7.00;99.90
49465;DHT22;35358;49.342;8.802;2023-04-07T00:04:06;7.00;99.90
49465;DHT22;35358;49.342;8.802;2023-04-07T00:06:32;7.10;99.90
49465;DHT22;35358;49.342;8.802;2023-04-07T00:08:57;7.10;99.90
49465;DHT22;35358;49.342;8.802;2023-04-07T00:11:25;7.10;99.90
49465;DHT22;35358;49.342;8.802;2023-04-07T00:13:51;7.00;99.90
49465;DHT22;35358;49.342;8.802;2023-04-07T00:16:17;7.00;99.90
49465;DHT22;35358;49.342;8.802;2023-04-07T00:18:47;7.00;99.90
49465;DHT22;35358;49.342;8.802;2023-04-07T00:21:12;7.00;99.90
49465;DHT22;35358;49.342;8.802;2023-04-07T00:23:40;7.00;99.90
49465;DHT22;35358;49.342;8.802;2023-04-07T00:26:07;7.00;99.90
49465;DHT22;35358;49.342;8.802;2023-04-07T00:28:35;7.00;99.90
49465;DHT22;35358;49.342;8.802;2023-04-07T00:31:00;7.00;99.90
49465;DHT22;35358;49.342;8.802;2023-04-07T00:33:28;6.90;99.90
49465;DHT22;35358;49.342;8.802;2023-04-07T00:35:56;6.90;99.90
49465;DHT22;35358;49.342;8.802;2023-04-07T00:38:23;6.90;99.90
49465;DHT22;35358;49.342;8.802;2023-04-07T00:40:48;6.90;99.90
49465;DHT22;35358;49.342;8.802;2023-04-07T00:43:14;6.90;99.90
49465;DHT22;35358;49.342;8.802;2023-04-07T00:45:39;6.90;99.90
49465;DHT22;35358;49.342;8.802;2023-04-07T00:48:06;6.90;99.90
49465;DHT22;35358;49.342;8.802;2023-04-07T00:50:33;6.90;99.90
49465;DHT22;35358;49.342;8.802;2023-04-07T00:53:01;7.00;99.90
49465;DHT22;35358;49.342;8.802;2023-04-07T00:55:32;6.90;99.90
49465;DHT22;35358;49.342;8.802;2023-04-07T00:57:57;6.90;99.90
49465;DHT22;35358;49.342;8.802;2023-04-07T01:00:26;6.90;99.90
49465;DHT22;35358;49.342;8.802;2023-04-07T01:03:03;7.00;99.90
49465;DHT22;35358;49.342;8.802;2023-04-07T01:08:12;6.90;99.90
49465;DHT22;35358;49.342;8.802;2023-04-07T01:10:52;6.90;99.90
49465;DHT22;35358;49.342;8.802;2023-04-07T01:13:33;7.00;99.90
49465;DHT22;35358;49.342;8.802;2023-04-07T01:16:08;7.00;99.90
49465;DHT22;35358;49.342;8.802;2023-04-07T01:18:37;7.00;99.90
49465;DHT22;35358;49.342;8.802;2023-04-07T01:21:10;6.90;99.90
49465;DHT22;35358;49.342;8.802;2023-04-07T01:26:34;7.10;99.90
49465;DHT22;35358;49.342;8.802;2023-04-07T01:31:42;6.90;99.90
49465;DHT22;35358;49.342;8.802;2023-04-07T01:34:09;6.90;99.90
49465;DHT22;35358;49.342;8.802;2023-04-07T01:36:36;6.80;99.90
49465;DHT22;35358;49.342;8.802;2023-04-07T01:39:03;6.80;99.90
49465;DHT22;35358;49.342;8.802;2023-04-07T01:41:31;6.80;99.90
49465;DHT22;35358;49.342;8.802;2023-04-07T01:43:58;6.90;99.90
49465;DHT22;35358;49.342;8.802;2023-04-07T01:46:25;6.90;99.90
49465;DHT22;35358;49.342;8.802;2023-04-07T01:48:51;6.90;99.90
49465;DHT22;35358;49.342;8.802;2023-04-07T01:51:20;6.90;99.90
49465;DHT22;35358;49.342;8.802;2023-04-07T01:53:47;6.90;99.90
49465;DHT22;35358;49.342;8.802;2023-04-07T01:56:13;6.90;99.90
49465;DHT22;35358;49.342;8.802;2023-04-07T01:58:44;6.90;99.90
49465;DHT22;35358;49.342;8.802;2023-04-07T02:01:10;6.90;99.90
49465;DHT22;35358;49.342;8.802;2023-04-07T02:06:08;6.90;99.90
49465;DHT22;35358;49.342;8.802;2023-04-07T02:08:38;6.90;99.90
49465;DHT22;35358;49.342;8.802;2023-04-07T02:11:09;6.90;99.90
49465;DHT22;35358;49.342;8.802;2023-04-07T02:13:36;6.90;99.90
49465;DHT22;35358;49.342;8.802;2023-04-07T02:16:04;7.00;99.90
49465;DHT22;35358;49.342;8.802;2023-04-07T02:18:31;6.90;99.90
49465;DHT22;35358;49.342;8.802;2023-04-07T02:20:57;6.90;99.90
49465;DHT22;35358;49.342;8.802;2023-04-07T02:23:27;6.80;99.90
49465;DHT22;35358;49.342;8.802;2023-04-07T02:25:55;6.80;99.90
49465;DHT22;35358;49.342;8.802;2023-04-07T02:28:24;6.80;99.90
49465;DHT22;35358;49.342;8.802;2023-04-07T02:30:50;6.80;99.90
49465;DHT22;35358;49.342;8.802;2023-04-07T02:33:15;6.80;99.90
49465;DHT22;35358;49.342;8.802;2023-04-07T02:35:43;6.80;99.90
49465;DHT22;35358;49.342;8.802;2023-04-07T02:38:09;6.90;99.90
49465;DHT22;35358;49.342;8.802;2023-04-07T02:40:37;6.80;99.90
49465;DHT22;35358;49.342;8.802;2023-04-07T02:43:07;6.80;99.90
49465;DHT22;35358;49.342;8.802;2023-04-07T02:45:33;6.80;99.90
49465;DHT22;35358;49.342;8.802;2023-04-07T02:48:01;6.80;99.90
49465;DHT22;35358;49.342;8.802;2023-04-07T02:50:26;6.90;99.90
49465;DHT22;35358;49.342;8.802;2023-04-07T02:52:55;6.80;99.90
49465;DHT22;35358;49.342;8.802;2023-04-07T02:55:21;6.80;99.90
49465;DHT22;35358;49.342;8.802;2023-04-07T02:57:46;6.80;99.90
49465;DHT22;35358;49.342;8.802;2023-04-07T03:00:14;6.80;99.90
49465;DHT22;35358;49.342;8.802;2023-04-07T03:02:45;6.80;99.90
49465;DHT22;35358;49.342;8.802;2023-04-07T03:05:16;6.80;99.90
49465;DHT22;35358;49.342;8.802;2023-04-07T03:07:41;6.80;99.90
49465;DHT22;35358;49.342;8.802;2023-04-07T03:10:07;6.80;99.90
49465;DHT22;35358;49.342;8.802;2023-04-07T03:12:33;6.80;99.90
49465;DHT22;35358;49.342;8.802;2023-04-07T03:14:58;6.80;99.90
49465;DHT22;35358;49.342;8.802;2023-04-07T03:17:29;6.90;99.90
49465;DHT22;35358;49.342;8.802;2023-04-07T03:19:55;6.90;99.90
49465;DHT22;35358;49.342;8.802;2023-04-07T03:22:21;6.90;99.90
49465;DHT22;35358;49.342;8.802;2023-04-07T03:24:46;6.80;99.90
49465;DHT22;35358;49.342;8.802;2023-04-07T03:27:14;6.80;99.90
49465;DHT22;35358;49.342;8.802;2023-04-07T03:29:45;6.90;99.90
49465;DHT22;35358;49.342;8.802;2023-04-07T03:32:11;6.90;99.90
49465;DHT22;35358;49.342;8.802;2023-04-07T03:34:37;6.90;99.90
49465;DHT22;35358;49.342;8.802;2023-04-07T03:37:05;6.80;99.90
49465;DHT22;35358;49.342;8.802;2023-04-07T03:39:30;6.90;99.90
49465;DHT22;35358;49.342;8.802;2023-04-07T03:42:02;6.90;99.90
49465;DHT22;35358;49.342;8.802;2023-04-07T03:44:27;7.00;99.90
49465;DHT22;35358;49.342;8.802;2023-04-07T03:46:56;6.90;99.90
49465;DHT22;35358;49.342;8.802;2023-04-07T03:49:25;6.90;99.90
49465;DHT22;35358;49.342;8.802;2023-04-07T03:51:53;7.00;99.90
49465;DHT22;35358;49.342;8.802;2023-04-07T03:54:19;7.10;99.90
49465;DHT22;35358;49.342;8.802;2023-04-07T03:56:45;7.00;99.90
49465;DHT22;35358;49.342;8.802;2023-04-07T03:59:11;7.00;99.90
49465;DHT22;35358;49.342;8.802;2023-04-07T04:01:36;7.00;99.90
49465;DHT22;35358;49.342;8.802;2023-04-07T04:04:02;6.90;99.90
49465;DHT22;35358;49.342;8.802;2023-04-07T04:06:30;6.90;99.90
49465;DHT22;35358;49.342;8.802;2023-04-07T04:08:55;6.80;99.90
49465;DHT22;35358;49.342;8.802;2023-04-07T04:11:23;6.80;99.90
49465;DHT22;35358;49.342;8.802;2023-04-07T04:13:54;6.80;99.90
49465;DHT22;35358;49.342;8.802;2023-04-07T04:16:19;6.80;99.90
49465;DHT22;35358;49.342;8.802;2023-04-07T04:18:47;6.80;99.90
49465;DHT22;35358;49.342;8.802;2023-04-07T04:21:13;6.90;99.90
49465;DHT22;35358;49.342;8.802;2023-04-07T04:23:41;6.90;99.90
49465;DHT22;35358;49.342;8.802;2023-04-07T04:26:07;6.90;99.90
49465;DHT22;35358;49.342;8.802;2023-04-07T04:28:34;6.90;99.90
49465;DHT22;35358;49.342;8.802;2023-04-07T04:31:00;6.90;99.90
49465;DHT22;35358;49.342;8.802;2023-04-07T04:33:26;6.90;99.90
49465;DHT22;35358;49.342;8.802;2023-04-07T04:35:51;7.00;99.90
49465;DHT22;35358;49.342;8.802;2023-04-07T04:38:20;7.00;99.90
49465;DHT22;35358;49.342;8.802;2023-04-07T04:40:48;6.90;99.90
49465;DHT22;35358;49.342;8.802;2023-04-07T04:43:13;6.90;99.90
49465;DHT22;35358;49.342;8.802;2023-04-07T04:45:39;6.90;99.90
49465;DHT22;35358;49.342;8.802;2023-04-07T04:48:05;6.80;99.90
49465;DHT22;35358;49.342;8.802;2023-04-07T04:50:33;6.80;99.90
49465;DHT22;35358;49.342;8.802;2023-04-07T04:52:59;6.80;99.90
49465;DHT22;35358;49.342;8.802;2023-04-07T04:55:24;6.80;99.90
49465;DHT22;35358;49.342;8.802;2023-04-07T04:57:55;6.80;99.90
49465;DHT22;35358;49.342;8.802;2023-04-07T05:00:25;6.60;99.90
49465;DHT22;35358;49.342;8.802;2023-04-07T05:02:50;6.60;99.90
49465;DHT22;35358;49.342;8.802;2023-04-07T05:05:18;6.70;99.90
49465;DHT22;35358;49.342;8.802;2023-04-07T05:07:44;6.60;99.90
49465;DHT22;35358;49.342;8.802;2023-04-07T05:10:10;6.70;99.90
49465;DHT22;35358;49.342;8.802;2023-04-07T05:12:38;6.60;99.90
49465;DHT22;35358;49.342;8.802;2023-04-07T05:15:04;6.70;99.90
49465;DHT22;35358;49.342;8.802;2023-04-07T05:17:32;6.70;99.90
49465;DHT22;35358;49.342;8.802;2023-04-07T05:20:00;6.70;99.90
49465;DHT22;35358;49.342;8.802;2023-04-07T05:22:28;6.80;99.90
49465;DHT22;35358;49.342;8.802;2023-04-07T05:24:53;7.00;99.90
49465;DHT22;35358;49.342;8.802;2023-04-07T05:27:19;6.90;99.90
49465;DHT22;35358;49.342;8.802;2023-04-07T05:29:45;6.90;99.90
49465;DHT22;35358;49.342;8.802;2023-04-07T05:32:15;6.90;99.90
49465;DHT22;35358;49.342;8.802;2023-04-07T05:34:41;6.80;99.90
49465;DHT22;35358;49.342;8.802;2023-04-07T05:37:09;6.90;99.90
49465;DHT22;35358;49.342;8.802;2023-04-07T05:39:37;6.80;99.90
49465;DHT22;35358;49.342;8.802;2023-04-07T05:42:03;6.80;99.90
49465;DHT22;35358;49.342;8.802;2023-04-07T05:44:29;6.80;99.90
49465;DHT22;35358;49.342;8.802;2023-04-07T05:46:54;6.90;99.90
49465;DHT22;35358;49.342;8.802;2023-04-07T05:49:20;7.00;99.90
49465;DHT22;35358;49.342;8.802;2023-04-07T05:51:46;7.00;99.90
49465;DHT22;35358;49.342;8.802;2023-04-07T05:54:11;7.00;99.90
49465;DHT22;35358;49.342;8.802;2023-04-07T05:56:37;7.00;99.90
49465;DHT22;35358;49.342;8.802;2023-04-07T05:59:04;7.00;99.90
49465;DHT22;35358;49.342;8.802;2023-04-07T06:01:30;7.20;99.90
49465;DHT22;35358;49.342;8.802;2023-04-07T06:03:58;7.20;99.90
49465;DHT22;35358;49.342;8.802;2023-04-07T06:06:24;7.20;99.90
49465;DHT22;35358;49.342;8.802;2023-04-07T06:08:50;7.10;99.90
49465;DHT22;35358;49.342;8.802;2023-04-07T06:11:16;7.30;99.90
49465;DHT22;35358;49.342;8.802;2023-04-07T06:13:43;7.50;99.90
49465;DHT22;35358;49.342;8.802;2023-04-07T06:16:09;7.60;99.90
49465;DHT22;35358;49.342;8.802;2023-04-07T06:18:35;7.50;99.90
49465;DHT22;35358;49.342;8.802;2023-04-07T06:21:03;7.60;99.90
49465;DHT22;35358;49.342;8.802;2023-04-07T06:23:31;7.50;99.90
49465;DHT22;35358;49.342;8.802;2023-04-07T06:25:57;7.50;99.90
49465;DHT22;35358;49.342;8.802;2023-04-07T06:28:22;7.70;99.90
49465;DHT22;35358;49.342;8.802;2023-04-07T06:30:50;7.70;99.90
49465;DHT22;35358;49.342;8.802;2023-04-07T06:33:18;7.60;99.90
49465;DHT22;35358;49.342;8.802;2023-04-07T06:35:50;7.60;99.90
49465;DHT22;35358;49.342;8.802;2023-04-07T06:38:15;7.80;99.90
49465;DHT22;35358;49.342;8.802;2023-04-07T06:40:45;7.80;99.90
49465;DHT22;35358;49.342;8.802;2023-04-07T06:43:14;8.00;99.90
49465;DHT22;35358;49.342;8.802;2023-04-07T06:45:44;7.90;99.90
49465;DHT22;35358;49.342;8.802;2023-04-07T06:48:12;8.00;99.90
49465;DHT22;35358;49.342;8.802;2023-04-07T06:50:39;8.00;99.90
49465;DHT22;35358;49.342;8.802;2023-04-07T06:53:08;7.90;99.90
49465;DHT22;35358;49.342;8.802;2023-04-07T06:55:33;7.90;99.90
49465;DHT22;35358;49.342;8.802;2023-04-07T06:58:01;7.90;99.90
49465;DHT22;35358;49.342;8.802;2023-04-07T07:00:27;8.10;99.90
49465;DHT22;35358;49.342;8.802;2023-04-07T07:02:55;8.10;99.90
49465;DHT22;35358;49.342;8.802;2023-04-07T07:05:21;8.10;99.90
49465;DHT22;35358;49.342;8.802;2023-04-07T07:07:48;8.40;99.90
49465;DHT22;35358;49.342;8.802;2023-04-07T07:10:14;8.20;99.90
49465;DHT22;35358;49.342;8.802;2023-04-07T07:12:39;8.20;99.90
49465;DHT22;35358;49.342;8.802;2023-04-07T07:15:08;8.10;99.90
49465;DHT22;35358;49.342;8.802;2023-04-07T07:17:36;8.20;99.90
49465;DHT22;35358;49.342;8.802;2023-04-07T07:20:02;8.30;99.90
49465;DHT22;35358;49.342;8.802;2023-04-07T07:22:30;8.40;99.90
49465;DHT22;35358;49.342;8.802;2023-04-07T07:25:00;8.50;99.90
49465;DHT22;35358;49.342;8.802;2023-04-07T07:27:26;8.80;99.90
49465;DHT22;35358;49.342;8.802;2023-04-07T07:29:53;9.00;99.90
49465;DHT22;35358;49.342;8.802;2023-04-07T07:32:19;9.10;99.90
49465;DHT22;35358;49.342;8.802;2023-04-07T07:34:45;9.20;99.90
49465;DHT22;35358;49.342;8.802;2023-04-07T07:37:10;9.20;99.90
49465;DHT22;35358;49.342;8.802;2023-04-07T07:39:39;9.10;99.90
49465;DHT22;35358;49.342;8.802;2023-04-07T07:42:04;9.00;99.90
49465;DHT22;35358;49.342;8.802;2023-04-07T07:44:30;9.10;99.90
49465;DHT22;35358;49.342;8.802;2023-04-07T07:46:55;9.00;99.90
49465;DHT22;35358;49.342;8.802;2023-04-07T07:49:21;9.10;99.90
49465;DHT22;35358;49.342;8.802;2023-04-07T07:51:46;9.50;99.90
49465;DHT22;35358;49.342;8.802;2023-04-07T07:54:14;9.70;99.90
49465;DHT22;35358;49.342;8.802;2023-04-07T07:56:40;10.10;99.90
49465;DHT22;35358;49.342;8.802;2023-04-07T07:59:05;10.90;99.90
49465;DHT22;35358;49.342;8.802;2023-04-07T08:01:31;11.80;99.90
49465;DHT22;35358;49.342;8.802;2023-04-07T08:03:57;11.30;99.90
49465;DHT22;35358;49.342;8.802;2023-04-07T08:06:23;10.50;99.90
49465;DHT22;35358;49.342;8.802;2023-04-07T08:08:53;10.50;99.90
49465;DHT22;35358;49.342;8.802;2023-04-07T08:11:19;10.50;99.90
49465;DHT22;35358;49.342;8.802;2023-04-07T08:13:45;10.40;99.90
49465;DHT22;35358;49.342;8.802;2023-04-07T08:16:11;10.50;99.90
49465;DHT22;35358;49.342;8.802;2023-04-07T08:18:36;10.60;99.90
49465;DHT22;35358;49.342;8.802;2023-04-07T08:21:05;10.70;99.90
49465;DHT22;35358;49.342;8.802;2023-04-07T08:23:33;10.70;99.90
49465;DHT22;35358;49.342;8.802;2023-04-07T08:25:58;10.70;99.90
49465;DHT22;35358;49.342;8.802;2023-04-07T08:28:27;10.60;99.90
49465;DHT22;35358;49.342;8.802;2023-04-07T08:30:53;10.70;99.90
49465;DHT22;35358;49.342;8.802;2023-04-07T08:33:18;10.80;99.90
49465;DHT22;35358;49.342;8.802;2023-04-07T08:35:44;10.60;99.90
49465;DHT22;35358;49.342;8.802;2023-04-07T08:38:10;10.60;99.90
49465;DHT22;35358;49.342;8.802;2023-04-07T08:40:36;11.00;99.90
49465;DHT22;35358;49.342;8.802;2023-04-07T08:43:07;10.70;99.90
49465;DHT22;35358;49.342;8.802;2023-04-07T08:45:37;11.00;99.90
49465;DHT22;35358;49.342;8.802;2023-04-07T08:48:16;11.20;99.90
49465;DHT22;35358;49.342;8.802;2023-04-07T08:50:48;11.60;99.90
49465;DHT22;35358;49.342;8.802;2023-04-07T08:53:21;11.70;99.90
49465;DHT22;35358;49.342;8.802;2023-04-07T08:55:48;11.90;99.90
49465;DHT22;35358;49.342;8.802;2023-04-07T08:58:15;11.90;99.90
49465;DHT22;35358;49.342;8.802;2023-04-07T09:00:43;12.10;99.90
49465;DHT22;35358;49.342;8.802;2023-04-07T09:03:13;12.10;99.90
49465;DHT22;35358;49.342;8.802;2023-04-07T09:05:39;11.90;99.90
49465;DHT22;35358;49.342;8.802;2023-04-07T09:08:07;11.80;99.90
49465;DHT22;35358;49.342;8.802;2023-04-07T09:10:32;12.00;99.90
49465;DHT22;35358;49.342;8.802;2023-04-07T09:13:02;12.10;99.90
49465;DHT22;35358;49.342;8.802;2023-04-07T09:15:31;12.30;99.90
49465;DHT22;35358;49.342;8.802;2023-04-07T09:17:57;12.10;99.90
49465;DHT22;35358;49.342;8.802;2023-04-07T09:20:24;12.10;99.90
49465;DHT22;35358;49.342;8.802;2023-04-07T09:22:51;12.10;99.90
49465;DHT22;35358;49.342;8.802;2023-04-07T09:25:21;12.30;99.90
49465;DHT22;35358;49.342;8.802;2023-04-07T09:27:58;12.10;99.90
49465;DHT22;35358;49.342;8.802;2023-04-07T09:30:27;11.80;99.90
49465;DHT22;35358;49.342;8.802;2023-04-07T09:32:53;11.50;99.90
49465;DHT22;35358;49.342;8.802;2023-04-07T09:35:18;11.50;99.90
49465;DHT22;35358;49.342;8.802;2023-04-07T09:38:08;11.50;99.90
49465;DHT22;35358;49.342;8.802;2023-04-07T09:40:34;11.50;99.90
49465;DHT22;35358;49.342;8.802;2023-04-07T09:43:02;11.50;99.90
49465;DHT22;35358;49.342;8.802;2023-04-07T09:45:29;11.50;99.90
49465;DHT22;35358;49.342;8.802;2023-04-07T09:47:56;11.40;99.90
49465;DHT22;35358;49.342;8.802;2023-04-07T09:50:32;11.50;99.90
49465;DHT22;35358;49.342;8.802;2023-04-07T09:52:59;11.50;99.90
49465;DHT22;35358;49.342;8.802;2023-04-07T09:55:27;11.60;99.90
49465;DHT22;35358;49.342;8.802;2023-04-07T09:57:53;11.90;99.90
49465;DHT22;35358;49.342;8.802;2023-04-07T10:00:23;11.80;99.90
49465;DHT22;35358;49.342;8.802;2023-04-07T10:02:49;11.80;99.90
49465;DHT22;35358;49.342;8.802;2023-04-07T10:05:16;11.90;99.90
49465;DHT22;35358;49.342;8.802;2023-04-07T10:07:45;11.90;99.90
49465;DHT22;35358;49.342;8.802;2023-04-07T10:10:16;12.00;99.90
49465;DHT22;35358;49.342;8.802;2023-04-07T10:12:42;12.20;99.90
49465;DHT22;35358;49.342;8.802;2023-04-07T10:15:11;12.30;99.90
49465;DHT22;35358;49.342;8.802;2023-04-07T10:17:39;12.20;99.90
49465;DHT22;35358;49.342;8.802;2023-04-07T10:20:08;12.20;99.90
49465;DHT22;35358;49.342;8.802;2023-04-07T10:22:35;12.20;99.90
49465;DHT22;35358;49.342;8.802;2023-04-07T10:25:10;12.40;99.90
49465;DHT22;35358;49.342;8.802;2023-04-07T10:27:54;12.40;99.90
49465;DHT22;35358;49.342;8.802;2023-04-07T10:30:33;12.50;99.90
49465;DHT22;35358;49.342;8.802;2023-04-07T10:32:59;12.90;99.90
49465;DHT22;35358;49.342;8.802;2023-04-07T10:35:25;12.90;99.90
49465;DHT22;35358;49.342;8.802;2023-04-07T10:40:35;12.50;99.90
49465;DHT22;35358;49.342;8.802;2023-04-07T10:43:03;12.60;99.90
49465;DHT22;35358;49.342;8.802;2023-04-07T10:48:15;12.50;99.90
49465;DHT22;35358;49.342;8.802;2023-04-07T10:50:41;12.60;99.90
49465;DHT22;35358;49.342;8.802;2023-04-07T10:53:15;12.40;99.90
49465;DHT22;35358;49.342;8.802;2023-04-07T10:55:43;12.50;99.90
49465;DHT22;35358;49.342;8.802;2023-04-07T11:03:39;12.80;99.90
49465;DHT22;35358;49.342;8.802;2023-04-07T11:06:10;13.00;99.90
49465;DHT22;35358;49.342;8.802;2023-04-07T11:08:42;14.00;99.90
49465;DHT22;35358;49.342;8.802;2023-04-07T11:11:12;13.20;99.90
49465;DHT22;35358;49.342;8.802;2023-04-07T11:16:05;12.60;99.90
49465;DHT22;35358;49.342;8.802;2023-04-07T11:18:32;12.40;99.90
49465;DHT22;35358;49.342;8.802;2023-04-07T11:20:57;12.40;99.90
49465;DHT22;35358;49.342;8.802;2023-04-07T11:23:24;12.40;99.90
49465;DHT22;35358;49.342;8.802;2023-04-07T11:26:00;12.50;99.90
49465;DHT22;35358;49.342;8.802;2023-04-07T11:28:26;12.50;99.90
49465;DHT22;35358;49.342;8.802;2023-04-07T11:30:57;12.60;99.90
49465;DHT22;35358;49.342;8.802;2023-04-07T11:33:29;12.70;99.90
49465;DHT22;35358;49.342;8.802;2023-04-07T11:36:01;12.80;99.90
49465;DHT22;35358;49.342;8.802;2023-04-07T11:38:35;12.80;99.90
49465;DHT22;35358;49.342;8.802;2023-04-07T11:41:10;12.80;99.90
49465;DHT22;35358;49.342;8.802;2023-04-07T11:43:38;13.00;99.90
49465;DHT22;35358;49.342;8.802;2023-04-07T11:48:38;13.00;99.90
49465;DHT22;35358;49.342;8.802;2023-04-07T11:51:05;13.10;99.90
49465;DHT22;35358;49.342;8.802;2023-04-07T11:53:35;13.30;99.90
49465;DHT22;35358;49.342;8.802;2023-04-07T11:56:08;13.80;99.90
49465;DHT22;35358;49.342;8.802;2023-04-07T11:58:37;14.10;99.90
49465;DHT22;35358;49.342;8.802;2023-04-07T12:01:05;14.00;99.90
49465;DHT22;35358;49.342;8.802;2023-04-07T12:03:36;13.80;99.90
49465;DHT22;35358;49.342;8.802;2023-04-07T12:06:03;13.90;99.90
49465;DHT22;35358;49.342;8.802;2023-04-07T12:08:42;13.60;99.90
49465;DHT22;35358;49.342;8.802;2023-04-07T12:11:09;13.50;99.90
49465;DHT22;35358;49.342;8.802;2023-04-07T12:13:36;13.80;99.90
49465;DHT22;35358;49.342;8.802;2023-04-07T12:16:04;14.20;99.90
49465;DHT22;35358;49.342;8.802;2023-04-07T12:18:30;13.80;99.90
49465;DHT22;35358;49.342;8.802;2023-04-07T12:20:56;13.80;99.90
49465;DHT22;35358;49.342;8.802;2023-04-07T12:23:23;14.00;99.90
49465;DHT22;35358;49.342;8.802;2023-04-07T12:25:53;14.00;99.90
49465;DHT22;35358;49.342;8.802;2023-04-07T12:28:19;14.30;99.90
49465;DHT22;35358;49.342;8.802;2023-04-07T12:30:45;14.50;99.90
49465;DHT22;35358;49.342;8.802;2023-04-07T12:33:10;14.20;99.90
49465;DHT22;35358;49.342;8.802;2023-04-07T12:35:39;13.90;99.90
49465;DHT22;35358;49.342;8.802;2023-04-07T12:38:04;13.80;99.90
49465;DHT22;35358;49.342;8.802;2023-04-07T12:40:30;13.50;99.90
49465;DHT22;35358;49.342;8.802;2023-04-07T12:42:58;13.70;99.90
49465;DHT22;35358;49.342;8.802;2023-04-07T12:45:28;14.40;99.90
49465;DHT22;35358;49.342;8.802;2023-04-07T12:47:57;14.50;99.90
49465;DHT22;35358;49.342;8.802;2023-04-07T12:50:23;14.90;99.90
49465;DHT22;35358;49.342;8.802;2023-04-07T12:52:50;15.00;99.90
49465;DHT22;35358;49.342;8.802;2023-04-07T12:55:16;14.70;99.90
49465;DHT22;35358;49.342;8.802;2023-04-07T12:57:44;14.30;99.90
49465;DHT22;35358;49.342;8.802;2023-04-07T13:00:13;14.20;99.90
49465;DHT22;35358;49.342;8.802;2023-04-07T13:02:41;14.00;99.90
49465;DHT22;35358;49.342;8.802;2023-04-07T13:05:07;14.00;99.90
49465;DHT22;35358;49.342;8.802;2023-04-07T13:07:33;13.90;99.90
49465;DHT22;35358;49.342;8.802;2023-04-07T13:10:01;13.70;99.90
49465;DHT22;35358;49.342;8.802;2023-04-07T13:12:26;13.60;99.90
49465;DHT22;35358;49.342;8.802;2023-04-07T13:14:54;13.80;99.90
49465;DHT22;35358;49.342;8.802;2023-04-07T13:17:20;13.80;99.90
49465;DHT22;35358;49.342;8.802;2023-04-07T13:19:45;13.90;99.90
49465;DHT22;35358;49.342;8.802;2023-04-07T13:22:12;13.80;99.90
49465;DHT22;35358;49.342;8.802;2023-04-07T13:24:40;13.70;99.90
49465;DHT22;35358;49.342;8.802;2023-04-07T13:27:05;13.70;99.90
49465;DHT22;35358;49.342;8.802;2023-04-07T13:29:36;13.50;99.90
49465;DHT22;35358;49.342;8.802;2023-04-07T13:32:11;13.20;99.90
49465;DHT22;35358;49.342;8.802;2023-04-07T13:34:40;13.00;99.90
49465;DHT22;35358;49.342;8.802;2023-04-07T13:37:06;13.10;99.90
49465;DHT22;35358;49.342;8.802;2023-04-07T13:39:32;13.20;99.90
49465;DHT22;35358;49.342;8.802;2023-04-07T13:41:58;13.00;99.90
49465;DHT22;35358;49.342;8.802;2023-04-07T13:44:25;12.90;99.90
49465;DHT22;35358;49.342;8.802;2023-04-07T13:46:55;12.90;99.90
49465;DHT22;35358;49.342;8.802;2023-04-07T13:49:20;12.80;99.90
49465;DHT22;35358;49.342;8.802;2023-04-07T13:51:49;12.70;99.90
49465;DHT22;35358;49.342;8.802;2023-04-07T13:54:19;12.90;99.90
49465;DHT22;35358;49.342;8.802;2023-04-07T13:56:47;12.90;99.90
49465;DHT22;35358;49.342;8.802;2023-04-07T13:59:15;13.10;99.90
49465;DHT22;35358;49.342;8.802;2023-04-07T14:01:43;13.20;99.90
49465;DHT22;35358;49.342;8.802;2023-04-07T14:04:11;12.90;99.90
49465;DHT22;35358;49.342;8.802;2023-04-07T14:06:37;13.00;99.90
49465;DHT22;35358;49.342;8.802;2023-04-07T14:09:03;13.30;99.90
49465;DHT22;35358;49.342;8.802;2023-04-07T14:11:31;13.60;99.90
49465;DHT22;35358;49.342;8.802;2023-04-07T14:13:57;13.70;99.90
49465;DHT22;35358;49.342;8.802;2023-04-07T14:16:25;14.10;99.90
49465;DHT22;35358;49.342;8.802;2023-04-07T14:18:54;14.00;99.90
49465;DHT22;35358;49.342;8.802;2023-04-07T14:21:22;14.40;99.90
49465;DHT22;35358;49.342;8.802;2023-04-07T14:23:48;14.10;99.90
49465;DHT22;35358;49.342;8.802;2023-04-07T14:26:16;14.00;99.90
49465;DHT22;35358;49.342;8.802;2023-04-07T14:28:45;14.50;99.90
49465;DHT22;35358;49.342;8.802;2023-04-07T14:31:15;14.40;99.90
49465;DHT22;35358;49.342;8.802;2023-04-07T14:33:44;15.20;99.90
49465;DHT22;35358;49.342;8.802;2023-04-07T14:36:20;15.30;99.90
49465;DHT22;35358;49.342;8.802;2023-04-07T14:38:47;15.30;99.90
49465;DHT22;35358;49.342;8.802;2023-04-07T14:41:17;15.10;99.90
49465;DHT22;35358;49.342;8.802;2023-04-07T14:43:44;15.50;99.90
49465;DHT22;35358;49.342;8.802;2023-04-07T14:46:10;15.30;99.90
49465;DHT22;35358;49.342;8.802;2023-04-07T14:48:41;15.30;99.90
49465;DHT22;35358;49.342;8.802;2023-04-07T14:51:13;16.20;99.90
49465;DHT22;35358;49.342;8.802;2023-04-07T14:53:42;15.40;99.90
49465;DHT22;35358;49.342;8.802;2023-04-07T14:56:08;15.20;99.90
49465;DHT22;35358;49.342;8.802;2023-04-07T14:58:33;14.60;99.90
49465;DHT22;35358;49.342;8.802;2023-04-07T15:01:01;15.30;99.90
49465;DHT22;35358;49.342;8.802;2023-04-07T15:03:27;15.50;99.90
49465;DHT22;35358;49.342;8.802;2023-04-07T15:05:53;15.50;99.90
49465;DHT22;35358;49.342;8.802;2023-04-07T15:08:21;15.20;99.90
49465;DHT22;35358;49.342;8.802;2023-04-07T15:10:46;15.60;99.90
49465;DHT22;35358;49.342;8.802;2023-04-07T15:13:12;15.70;99.90
49465;DHT22;35358;49.342;8.802;2023-04-07T15:15:40;14.90;99.90
49465;DHT22;35358;49.342;8.802;2023-04-07T15:18:07;14.90;99.90
49465;DHT22;35358;49.342;8.802;2023-04-07T15:20:33;14.20;99.90
49465;DHT22;35358;49.342;8.802;2023-04-07T15:22:59;14.40;99.90
49465;DHT22;35358;49.342;8.802;2023-04-07T15:25:30;14.10;99.90
49465;DHT22;35358;49.342;8.802;2023-04-07T15:27:58;14.30;99.90
49465;DHT22;35358;49.342;8.802;2023-04-07T15:30:23;14.40;99.90
49465;DHT22;35358;49.342;8.802;2023-04-07T15:32:59;14.50;99.90
49465;DHT22;35358;49.342;8.802;2023-04-07T15:35:26;15.10;99.90
49465;DHT22;35358;49.342;8.802;2023-04-07T15:37:54;14.80;99.90
49465;DHT22;35358;49.342;8.802;2023-04-07T15:40:20;14.50;99.90
49465;DHT22;35358;49.342;8.802;2023-04-07T15:42:46;14.50;99.90
49465;DHT22;35358;49.342;8.802;2023-04-07T15:45:11;14.90;99.90
49465;DHT22;35358;49.342;8.802;2023-04-07T15:47:40;14.90;99.90
49465;DHT22;35358;49.342;8.802;2023-04-07T15:50:06;14.50;99.90
49465;DHT22;35358;49.342;8.802;2023-04-07T15:52:32;14.80;99.90
49465;DHT22;35358;49.342;8.802;2023-04-07T15:55:00;15.10;99.90
49465;DHT22;35358;49.342;8.802;2023-04-07T15:57:26;15.00;99.90
49465;DHT22;35358;49.342;8.802;2023-04-07T15:59:53;15.40;99.90
49465;DHT22;35358;49.342;8.802;2023-04-07T16:02:19;14.70;99.90
49465;DHT22;35358;49.342;8.802;2023-04-07T16:04:45;14.30;99.90
49465;DHT22;35358;49.342;8.802;2023-04-07T16:07:11;14.60;99.90